Portada
METAR-TAF:

METAR-TAF

Aeroports :

Peshawar, Pakistan

latitud: 34-01N, longitud: 071-35E, altitud: 359 m

Observació

L'informe es va fer fa 21 minuts, a les 04:30 UTC
Vent 4 kt del Sud-Oest
Temperatura 21°C
Humitat 56%
Pressió 1018 hPa
Visibilitat: 4000 m
Cel clar
calitja

METAR: OPPS 210430Z 23004KT 4000 HZ SKC 21/12 Q1018

Hora: 09:51 (04:51 UTC)

Pronòstic

L'informe es va fer fa 12 hores i 36 minuts, a les 16:15 UTC
Pronòstic vàlid del 20 a les 18 UTC al 21 a les 24 UTC
Vent 10 kt del Nord/Nord-Oest
Visibilitat: 4000 m
Escasses núvols a una alçada de 4000 ft
Núvols disperses a una alçada de 10000 ft
calitja
Temporalment
l' 21 a les 03 UTC al 21 a les 06 UTC
Visibilitat: 3000 m
calitja
Temporalment
l' 21 a les 09 UTC al 21 a les 1 UTC
Núvols disperses a una alçada de 4000 ft
Núvols disperses a una alçada de 10000 ft

TAF: OPPS 201615Z 2018/2124 33010KT 4000 HZ FEW040 SCT100 TEMPO 2103/2106 3000 HZ TEMPO 2109/211 SCT040 SCT100

Observacions i pronòstics meteorològics de més de 4000 aeroports (METAR i TAF).

Les estacions disponibles són els punts grocs i vermells al mapa.

Posi el ratolí al punt desitjat per veure el nom de l'estació.

Feu clic per veure les observacions i els pronòstics meteorològics.

Per canviar el mapa: feu clic els botons verds amb una creu de color negre per apropar; al botó verd amb un guió per allunyar la imatge; o en les fletxes verdes per a mapes adjacents.


METAR-TAF: